ADDS METAR Data INFO
IDs: Format: Raw Decoded Include TAF

Data at: 1155 UTC 23 Jun 2018

KCQB 231135Z AUTO 18007KT 10SM -DZ SCT070 SCT090 SCT120 20/18 A2977 RMK AO2 LTG DSNT SE T01970182
KCQB 231115Z AUTO 19008KT 10SM SCT120 20/18 A2979 RMK AO2 LTG DSNT S AND SW T01950184
KCQB 231055Z AUTO 14004KT 10SM VCTS SCT055 SCT075 BKN120 20/18 A2978 RMK AO2 LTG DSNT SE AND S T01990183
KCQB 231035Z AUTO 06005KT 10SM -RA SCT080 SCT100 BKN120 20/18 A2979 RMK AO2 LTG DSNT S AND SW T02020181
KCQB 231015Z AUTO 29008KT 10SM -RA SCT085 BKN110 20/18 A2976 RMK AO2 LTG DSNT SW T02030180
KCQB 230955Z AUTO 22008G17KT 10SM -RA SCT085 SCT120 20/18 A2975 RMK AO2 LTG DSNT SW T02000183
KCQB 230935Z AUTO 21011KT 10SM -RA SCT120 20/18 A2970 RMK AO2 LTG DSNT SE AND W T01990183
KCQB 230915Z AUTO 19012KT 10SM SCT110 20/18 A2970 RMK AO2 LTG DSNT W T01960182
KCQB 230855Z AUTO 17010G17KT 10SM CLR 20/18 A2972 RMK AO2 LTG DSNT SE AND W 60003
KCQB 230835Z AUTO 17013G18KT 10SM -RA SCT070 SCT100 20/19 A2973 RMK AO2 T01960187
KCQB 230815Z AUTO 14014G20KT 10SM -RA SCT070 SCT110 20/19 A2971 RMK AO2 T01960185
KCQB 230755Z AUTO 15012G17KT 10SM -RA SCT110 19/19 A2977 RMK AO2 LTG DSNT E THRU S P0001 T01950189
KCQB 230735Z AUTO 15010G15KT 7SM VCTSRA BKN110 20/19 A2981 RMK AO2 LTG DSNT E AND SE T01960189
KCQB 230715Z AUTO 14009KT 10SM -VCTSRA OVC110 20/19 A2983 RMK AO2 LTG DSNT E AND SE T01970189
KCQB 230655Z AUTO 08014G23KT 7SM RA BKN100 OVC120 20/19 A2983 RMK AO2 LTG DSNT E THRU S P0002 T01970189
KCQB 230635Z AUTO 25005KT 7SM TSRA SCT070 BKN100 OVC120 20/19 A2994 RMK AO2 LTG DSNT E THRU SW T01960190
KCQB 230615Z AUTO 05007KT 7SM TSRA SCT015 SCT070 OVC100 19/19 A2993 RMK AO2 LTG DSNT ALQDS T01950188
KCQB 230555Z AUTO 36010G18KT 7SM VCTSRA SCT009 BKN025 OVC100 19/19 A2995 RMK AO2 LTG DSNT ALQDS T01950188 10270 20195 60001
KCQB 230535Z AUTO 35018G28KT 7SM VCTSRA BR OVC009 20/19 A2995 RMK AO2 LTG DSNT ALQDS T01960189
KCQB 230515Z AUTO 34024G33KT 7SM +VCTSRA BR BKN009 BKN012 OVC023 20/19 A2993 RMK AO2 LTG DSNT ALQDS T01990191
KCQB 230455Z AUTO 33019G28KT 7SM TSRA BR SCT009 BKN050 OVC080 20/20 A2994 RMK AO2 LTG DSNT ALQDS P0001 T02020195
KCQB 230435Z AUTO 32027G42KT 5SM +TSRA BR SCT029 SCT042 BKN065 21/19 A2994 RMK AO2 LTG DSNT ALQDS P0001 T02070191
KCQB 230415Z AUTO 31013G23KT 10SM VCTS SCT100 22/19 A2987 RMK AO2 LTG DSNT W THRU N T02240186
KCQB 230355Z AUTO 11006KT 10SM CLR 22/18 A2976 RMK AO2 LTG DSNT N T02240184
KCQB 230335Z AUTO 10007KT 10SM CLR 22/19 A2976 RMK AO2 LTG DSNT W T02210186
KCQB 230315Z AUTO 11005KT 10SM CLR 23/18 A2978 RMK AO2 LTG DSNT NW T02270184
KCQB 230255Z AUTO 10004KT 10SM CLR 23/19 A2978 RMK AO2 LTG DSNT NW T02260187
KCQB 230235Z AUTO 09005KT 10SM CLR 22/19 A2977 RMK AO2 T02230189
KCQB 230215Z AUTO 11004KT 10SM CLR 23/19 A2977 RMK AO2 T02300186
KCQB 230155Z AUTO 00000KT 10SM CLR 23/19 A2977 RMK AO2 T02300189
KCQB 230135Z AUTO 12003KT 10SM CLR 24/19 A2976 RMK AO2 T02360187
KCQB 230115Z AUTO 09004KT 10SM CLR 24/19 A2975 RMK AO2 T02430193
KCQB 230055Z AUTO 10003KT 10SM CLR 26/19 A2975 RMK AO2 T02580191
KCQB 230035Z AUTO 11003KT 7SM CLR 26/19 A2975 RMK AO2 T02650187
KCQB 230015Z AUTO 12004KT 10SM CLR 27/18 A2974 RMK AO2 T02670181
KCQB 222355Z AUTO 13004KT 10SM CLR 27/18 A2976 RMK AO2 T02700182 10277 20250 403100173
KCQB 222335Z AUTO 11004KT 10SM CLR 27/18 A2976 RMK AO2 T02700181
KCQB 222315Z AUTO 11004KT 10SM CLR 27/19 A2977 RMK AO2 T02720185
KCQB 222255Z AUTO 09004KT 10SM CLR 27/19 A2978 RMK AO2 T02740186
KCQB 222235Z AUTO 00000KT 10SM CLR 27/18 A2980 RMK AO2 T02700181
KCQB 222215Z AUTO 17004KT 10SM CLR 26/18 A2980 RMK AO2 T02650183
KCQB 222155Z AUTO 00000KT 10SM CLR 26/19 A2981 RMK AO2 T02640185
KCQB 222135Z AUTO 17004KT 10SM -RA SCT043 SCT065 SCT110 25/19 A2979 RMK AO2 T02530189
KCQB 222115Z AUTO 00000KT 10SM CLR 26/18 A2981 RMK AO2 T02610177
KCQB 222055Z AUTO 09004KT 10SM CLR 26/18 A2981 RMK AO2 T02580176
KCQB 222035Z AUTO 03003KT 10SM CLR 26/18 A2983 RMK AO2 T02590181
KCQB 222015Z AUTO 03006KT 10SM CLR 26/19 A2984 RMK AO2 T02610192
KCQB 221955Z AUTO 06003KT 10SM CLR 25/18 A2984 RMK AO2 T02520182
KCQB 221935Z AUTO 00000KT 10SM CLR 26/17 A2985 RMK AO2 T02600173
KCQB 221915Z AUTO 32004KT 10SM CLR 25/18 A2987 RMK AO2 T02530179
KCQB 221855Z AUTO 30004KT 10SM CLR 25/17 A2989 RMK AO2 T02520173
KCQB 221835Z AUTO 31004KT 10SM CLR 25/18 A2990 RMK AO2 T02540178
KCQB 221815Z AUTO 31004KT 10SM CLR 26/18 A2990 RMK AO2 T02560180
KCQB 221755Z AUTO 01003KT 10SM CLR 25/17 A2988 RMK AO2 T02530173 10265 20192
KCQB 221735Z AUTO 36004KT 10SM CLR 26/17 A2988 RMK AO2 T02560172
KCQB 221715Z AUTO 26003KT 10SM CLR 26/17 A2989 RMK AO2 T02570174
KCQB 221655Z AUTO 27007KT 10SM CLR 26/17 A2992 RMK AO2 T02570174
KCQB 221635Z AUTO 25005KT 10SM CLR 26/18 A2992 RMK AO2 LTG DSNT W T02590182
KCQB 221615Z AUTO 26006KT 10SM CLR 25/18 A2992 RMK AO2 T02540176
KCQB 221555Z AUTO 26006KT 10SM CLR 25/17 A2992 RMK AO2 T02480174
KCQB 221535Z AUTO 33005KT 10SM CLR 25/17 A2993 RMK AO2 T02480168
KCQB 221515Z AUTO 30005KT 10SM CLR 24/17 A2992 RMK AO2 T02390171
KCQB 221455Z AUTO 29004KT 10SM CLR 23/17 A2991 RMK AO2 T02340173
KCQB 221435Z AUTO 30004KT 10SM CLR 23/17 A2992 RMK AO2 T02300173
KCQB 221415Z AUTO 27004KT 10SM CLR 22/17 A2992 RMK AO2 T02250172
KCQB 221355Z AUTO 28005KT 10SM CLR 22/17 A2992 RMK AO2 LTG DSNT SW T02190174
KCQB 221335Z AUTO 30004KT 10SM CLR 22/17 A2992 RMK AO2 LTG DSNT S AND SW T02170173
KCQB 221315Z AUTO 28006KT 10SM SCT085 22/17 A2992 RMK AO2 LTG DSNT SW T02170173
KCQB 221255Z AUTO 00000KT 10SM CLR 20/17 A2991 RMK AO2
KCQB 221235Z AUTO 00000KT 10SM CLR 19/17 A2991 RMK AO2 T01940167
KCQB 221215Z AUTO 00000KT 10SM CLR 19/16 A2989 RMK AO2 LTG DSNT W T01940165
KCQB 221155Z AUTO 00000KT 10SM CLR 19/16 A2990 RMK AO2 T01910165 10222 20173
KCQB 221135Z AUTO 33003KT 10SM CLR 18/16 A2989 RMK AO2 LTG DSNT W T01800160
KCQB 221115Z AUTO 35004KT 10SM CLR 18/16 A2988 RMK AO2 T01760158
KCQB 221055Z AUTO 35005KT 10SM CLR 17/16 A2988 RMK AO2 T01740158
KCQB 221035Z AUTO 35004KT 10SM CLR 18/16 A2987 RMK AO2 T01760160
KCQB 221015Z AUTO 36003KT 10SM CLR 18/16 A2986 RMK AO2 LTG DSNT W T01850157
KCQB 220955Z AUTO 01004KT 10SM CLR 18/15 A2985 RMK AO2 T01830154
KCQB 220935Z AUTO 36004KT 10SM CLR 19/15 A2986 RMK AO2 T01920151
KCQB 220915Z AUTO 01004KT 10SM CLR 20/15 A2985 RMK AO2 T01980149
KCQB 220855Z AUTO 03003KT 10SM CLR 21/15 A2985 RMK AO2 T02050147
KCQB 220835Z AUTO 04004KT 10SM CLR 20/15 A2985 RMK AO2 T02010149
KCQB 220815Z AUTO 00000KT 10SM CLR 20/15 A2986 RMK AO2 T02000152
KCQB 220755Z AUTO 03003KT 10SM CLR 21/15 A2986 RMK AO2 T02070150
KCQB 220735Z AUTO 03004KT 10SM CLR 21/15 A2987 RMK AO2 T02090151
KCQB 220715Z AUTO 03004KT 10SM CLR 21/15 A2988 RMK AO2 T02130151
KCQB 220655Z AUTO 03004KT 10SM CLR 21/15 A2988 RMK AO2 T02130153
KCQB 220635Z AUTO 03004KT 10SM CLR 22/15 A2988 RMK AO2 T02160154
KCQB 220615Z AUTO 03004KT 10SM CLR 22/16 A2988 RMK AO2 T02180158
KCQB 220555Z AUTO 02004KT 10SM CLR 22/16 A2988 RMK AO2 T02200163 10310 20220
KCQB 220535Z AUTO 03005KT 10SM CLR 22/17 A2988 RMK AO2 T02240172
KCQB 220515Z AUTO 36006KT 10SM CLR 23/18 A2988 RMK AO2 T02260182
KCQB 220455Z AUTO 34003KT 10SM CLR 24/18 A2987 RMK AO2 T02440181
KCQB 220435Z AUTO 00000KT 10SM CLR 24/19 A2986 RMK AO2 T02430186
KCQB 220415Z AUTO 00000KT 10SM CLR 25/19 A2986 RMK AO2 T02460190
KCQB 220355Z AUTO 23004KT 10SM CLR 25/19 A2986 RMK AO2 T02480193
KCQB 220335Z AUTO 00000KT 10SM CLR 25/20 A2986 RMK AO2
KCQB 220315Z AUTO 25003KT 10SM CLR 24/20 A2985 RMK AO2
KCQB 220255Z AUTO 21003KT 10SM CLR 25/20 A2985 RMK AO2 T02540204
KCQB 220235Z AUTO 21004KT 10SM SCT090 24/21 A2984 RMK AO2 T02440205
KCQB 220215Z AUTO 19004KT 10SM CLR 25/21 A2984 RMK AO2 T02540205
KCQB 220155Z AUTO 00000KT 5SM HZ CLR 26/20 A2984 RMK AO2 T02590204
KCQB 220135Z AUTO 00000KT 10SM CLR 27/20 A2983 RMK AO2 T02660203
KCQB 220115Z AUTO 00000KT 10SM SCT090 28/22 A2983 RMK AO2 T02840220
KCQB 220055Z AUTO 00000KT 10SM SCT090 29/19 A2983 RMK AO2 T02940192
KCQB 220035Z AUTO 28004KT 10SM SCT090 30/18 A2983 RMK AO2 T03030176
KCQB 220015Z AUTO 28004KT 10SM CLR 31/17 A2983 RMK AO2 T03060172